Time;durP1;ratioP1;P1;durP2;ratioP2;P2;SDS_P1;SDS_P2;PMS_P1;PMS_P2;Temp;Humidity;BMP_temperature;BMP_pressure;BME280_temperature;BME280_humidity;BME280_pressure;Samples;Min_cycle;Max_cycle;Signal;HPM_P1;HPM_P2
2023/09/13 00:02:33;;;;;;;17.50;13.00;;;;;;;14.53;77.17;99525.27;218936;1256;139978;-70
2023/09/13 00:07:37;;;;;;;21.50;15.60;;;;;;;14.44;77.42;99520.46;218053;1257;140196;-72
2023/09/13 00:12:41;;;;;;;20.10;17.20;;;;;;;14.35;77.69;99516.56;217560;1257;140313;-72
2023/09/13 00:17:44;;;;;;;26.70;17.40;;;;;;;14.33;78.15;99518.40;218096;1256;141594;-73
2023/09/13 00:22:47;;;;;;;18.60;14.40;;;;;;;14.32;78.16;99518.61;217642;1256;140466;-77
2023/09/13 00:27:50;;;;;;;17.70;12.70;;;;;;;14.23;77.88;99518.36;217943;1256;140946;-73
2023/09/13 00:32:55;;;;;;;19.70;15.70;;;;;;;14.08;77.85;99514.83;218674;1257;140470;-73
2023/09/13 00:37:59;;;;;;;21.00;17.00;;;;;;;14.03;78.78;99511.50;218100;1256;140752;-72
2023/09/13 00:43:03;;;;;;;21.00;17.40;;;;;;;14.05;79.28;99512.77;217633;1256;139945;-70
2023/09/13 00:48:08;;;;;;;18.40;15.30;;;;;;;14.06;79.12;99511.71;217736;1258;140179;-72
2023/09/13 00:53:11;;;;;;;15.90;14.30;;;;;;;14.04;78.91;99512.58;217913;1259;141325;-71
2023/09/13 00:58:15;;;;;;;19.90;15.00;;;;;;;13.96;78.89;99509.21;218373;1259;140176;-72
2023/09/13 01:03:20;;;;;;;24.50;16.30;;;;;;;13.86;79.01;99514.08;217504;1257;141111;-71
2023/09/13 01:08:24;;;;;;;20.40;16.00;;;;;;;13.85;79.59;99508.55;217329;1260;140304;-79
2023/09/13 01:13:27;;;;;;;19.70;15.70;;;;;;;13.84;79.56;99511.71;218585;1256;140788;-70
2023/09/13 01:18:49;;;;;;;16.30;14.10;;;;;;;13.80;79.57;99509.66;217671;1257;141637;-70
2023/09/13 01:24:09;;;;;;;17.80;16.00;;;;;;;13.75;79.84;99509.11;217612;1256;140765;-73
2023/09/13 01:29:15;;;;;;;27.20;16.70;;;;;;;13.74;79.84;99501.45;219556;1257;140334;-71
2023/09/13 01:34:18;;;;;;;29.30;16.70;;;;;;;13.64;80.11;99507.29;218661;1258;142547;-74
2023/09/13 01:39:22;;;;;;;19.90;15.10;;;;;;;13.63;80.21;99509.70;218402;1256;141450;-73
2023/09/13 01:44:27;;;;;;;20.80;16.00;;;;;;;13.53;80.02;99503.00;218250;1259;141287;-78
2023/09/13 01:49:32;;;;;;;21.00;16.30;;;;;;;13.49;80.48;99497.61;218550;1257;140590;-72
2023/09/13 01:54:36;;;;;;;18.20;14.70;;;;;;;13.51;80.46;99500.57;218211;1256;140564;-74
2023/09/13 01:59:40;;;;;;;17.20;14.60;;;;;;;13.43;80.71;99494.54;218148;1258;139943;-70
2023/09/13 02:04:43;;;;;;;27.20;16.70;;;;;;;13.41;80.78;99488.91;217785;1258;141941;-71
2023/09/13 02:09:47;;;;;;;20.40;16.60;;;;;;;13.40;80.81;99490.79;218209;1259;141141;-74
2023/09/13 02:14:51;;;;;;;20.10;14.40;;;;;;;13.40;80.88;99496.77;218823;1257;140761;-71
2023/09/13 02:19:55;;;;;;;18.80;16.10;;;;;;;13.37;81.13;99496.54;217336;1260;140296;-73
2023/09/13 02:24:57;;;;;;;17.40;14.60;;;;;;;13.37;81.14;99496.75;218386;1259;140687;-73
2023/09/13 02:30:04;;;;;;;22.30;14.00;;;;;;;13.33;80.84;99493.09;217406;1256;140922;-73
2023/09/13 02:35:08;;;;;;;17.70;13.40;;;;;;;13.29;81.17;99490.59;217369;1260;141290;-70
2023/09/13 02:40:12;;;;;;;18.10;14.80;;;;;;;13.23;81.04;99490.54;217469;1260;140256;-72
2023/09/13 02:45:16;;;;;;;19.70;16.50;;;;;;;13.18;81.35;99488.10;217241;1257;141358;-75
2023/09/13 02:50:19;;;;;;;23.30;15.10;;;;;;;13.21;81.49;99483.68;217785;1256;140235;-75
2023/09/13 02:55:23;;;;;;;21.10;17.10;;;;;;;13.14;81.55;99478.44;217716;1257;140310;-72
2023/09/13 03:00:26;;;;;;;19.90;15.70;;;;;;;13.13;81.73;99482.39;217741;1257;140799;-76
2023/09/13 03:05:29;;;;;;;19.60;15.20;;;;;;;13.16;81.91;99480.43;217527;1257;139678;-75
2023/09/13 03:10:33;;;;;;;31.20;15.60;;;;;;;13.10;81.64;99469.95;218555;1257;141889;-74
2023/09/13 03:15:36;;;;;;;18.70;16.30;;;;;;;13.03;81.78;99466.69;218024;1258;141087;-74
2023/09/13 03:20:39;;;;;;;20.10;16.20;;;;;;;12.97;81.91;99465.02;217799;1256;140106;-74
2023/09/13 03:25:42;;;;;;;18.00;15.90;;;;;;;12.94;82.06;99469.92;220001;1258;140205;-77
2023/09/13 03:30:44;;;;;;;19.60;16.60;;;;;;;12.93;82.06;99474.89;217619;1256;140160;-74
2023/09/13 03:35:46;;;;;;;17.70;14.60;;;;;;;12.96;82.37;99473.20;218711;1256;140716;-75
2023/09/13 03:40:51;;;;;;;29.90;15.50;;;;;;;12.96;82.54;99466.95;220195;1257;140800;-75
2023/09/13 03:45:55;;;;;;;18.60;14.50;;;;;;;12.94;82.37;99465.21;218313;1256;140699;-74
2023/09/13 03:50:58;;;;;;;17.40;15.60;;;;;;;12.88;82.21;99460.46;218233;1260;141218;-74
2023/09/13 03:56:01;;;;;;;25.40;18.50;;;;;;;12.89;82.51;99456.98;217576;1260;140956;-72
2023/09/13 04:01:04;;;;;;;22.20;16.00;;;;;;;12.93;82.94;99453.02;218434;1258;140681;-73
2023/09/13 04:06:06;;;;;;;18.30;13.90;;;;;;;12.94;82.83;99445.70;217640;1257;140228;-76
2023/09/13 04:11:09;;;;;;;19.50;16.30;;;;;;;12.89;82.55;99446.73;218485;1260;141990;-71
2023/09/13 04:16:16;;;;;;;22.80;16.60;;;;;;;12.87;82.91;99442.59;217742;1257;142025;-74
2023/09/13 04:21:18;;;;;;;26.90;16.50;;;;;;;12.90;82.97;99442.66;218174;1257;221856;-73
2023/09/13 04:26:23;;;;;;;19.80;16.00;;;;;;;12.90;82.92;99441.96;218269;1257;140331;-77
2023/09/13 04:31:27;;;;;;;20.50;15.80;;;;;;;12.87;82.88;99444.73;217875;1260;140338;-72
2023/09/13 04:36:30;;;;;;;21.60;17.00;;;;;;;12.86;83.26;99454.51;217675;1260;140075;-72
2023/09/13 04:41:35;;;;;;;26.30;17.80;;;;;;;12.89;83.38;99447.25;217286;1261;140483;-76
2023/09/13 04:46:38;;;;;;;24.50;17.00;;;;;;;12.91;83.71;99446.90;218066;1258;140344;-75
2023/09/13 04:51:41;;;;;;;22.80;19.00;;;;;;;12.95;83.97;99448.69;217467;1257;140213;-74
2023/09/13 04:56:44;;;;;;;26.60;20.10;;;;;;;13.01;84.14;99446.61;218690;1256;139812;-75
2023/09/13 05:01:48;;;;;;;25.50;18.00;;;;;;;13.12;84.37;99450.48;217804;1256;140807;-74
2023/09/13 05:06:51;;;;;;;21.60;17.20;;;;;;;13.26;84.47;99452.55;217961;1257;140879;-74
2023/09/13 05:11:54;;;;;;;26.00;20.30;;;;;;;13.42;85.01;99455.71;217948;1259;139912;-73
2023/09/13 05:16:57;;;;;;;23.70;17.30;;;;;;;13.60;85.14;99452.73;218974;1259;141599;-74
2023/09/13 05:22:01;;;;;;;25.00;19.20;;;;;;;13.78;85.33;99456.25;219367;1256;140936;-73
2023/09/13 05:27:04;;;;;;;34.60;20.20;;;;;;;13.99;85.49;99450.15;220223;1257;140140;-74
2023/09/13 05:32:07;;;;;;;24.50;19.40;;;;;;;14.21;85.54;99442.74;220373;1256;140833;-71
2023/09/13 05:37:11;;;;;;;24.90;19.00;;;;;;;14.44;85.61;99446.87;219208;1261;141378;-75
2023/09/13 05:42:15;;;;;;;31.40;20.80;;;;;;;14.68;85.68;99447.10;220356;1256;140425;-80
2023/09/13 05:47:18;;;;;;;31.60;21.50;;;;;;;14.95;85.99;99444.46;219063;1256;141320;-79
2023/09/13 05:52:22;;;;;;;32.10;22.30;;;;;;;15.21;86.20;99442.81;218092;1259;141203;-75
2023/09/13 05:57:30;;;;;;;29.20;21.20;;;;;;;15.48;86.43;99447.53;217645;1256;141117;-76
2023/09/13 06:02:34;;;;;;;31.60;21.80;;;;;;;15.74;86.68;99444.02;217854;1256;142269;-76
2023/09/13 06:07:37;;;;;;;33.50;24.10;;;;;;;16.01;86.83;99439.80;218661;1257;140766;-79
2023/09/13 06:12:40;;;;;;;30.60;24.90;;;;;;;16.28;87.09;99439.85;218352;1257;141368;-75
2023/09/13 06:17:44;;;;;;;26.40;20.50;;;;;;;16.57;87.69;99447.83;218247;1256;140677;-78
2023/09/13 06:22:48;;;;;;;35.00;23.70;;;;;;;16.87;88.04;99449.70;218390;1256;209449;-71
2023/09/13 06:27:52;;;;;;;25.80;22.90;;;;;;;17.18;88.39;99445.64;217682;1260;141106;-73
2023/09/13 06:32:54;;;;;;;27.30;22.80;;;;;;;17.52;88.31;99439.02;217652;1256;140790;-77
2023/09/13 06:38:15;;;;;;;33.30;22.40;;;;;;;17.89;87.65;99449.86;217768;1261;140444;-75
2023/09/13 06:43:19;;;;;;;31.00;22.40;;;;;;;18.25;87.02;99455.13;217158;1259;140442;-76
2023/09/13 06:48:25;;;;;;;29.90;24.60;;;;;;;18.64;86.54;99463.48;218278;1257;140673;-77
2023/09/13 06:53:29;;;;;;;27.70;20.60;;;;;;;19.09;86.05;99471.98;217320;1256;140652;-73
2023/09/13 06:58:36;;;;;;;39.00;23.20;;;;;;;19.76;85.38;99473.80;217055;1260;140480;-79
2023/09/13 07:03:44;;;;;;;32.80;21.10;;;;;;;20.63;84.18;99468.26;217044;1259;141441;-77
2023/09/13 07:08:57;;;;;;;22.10;19.90;;;;;;;21.88;82.51;99470.38;217194;1256;140068;-78
2023/09/13 07:14:00;;;;;;;24.20;20.60;;;;;;;23.26;80.12;99471.23;217838;1256;140564;-78
2023/09/13 07:19:05;;;;;;;22.80;20.40;;;;;;;24.63;78.35;99477.98;218013;1256;140883;-72
2023/09/13 07:24:09;;;;;;;23.50;19.60;;;;;;;25.86;75.69;99484.75;217327;1256;140548;-76
2023/09/13 07:29:12;;;;;;;23.70;20.40;;;;;;;26.66;72.68;99477.06;217254;1256;139583;-77
2023/09/13 07:34:16;;;;;;;25.70;17.80;;;;;;;27.06;71.56;99477.01;217635;1256;561701;-77
2023/09/13 07:39:36;;;;;;;22.10;19.00;;;;;;;27.51;69.14;99480.50;219261;1257;139698;-78
2023/09/13 07:44:39;;;;;;;23.60;20.70;;;;;;;27.81;67.71;99481.96;217061;1261;142154;-75
2023/09/13 07:49:43;;;;;;;19.70;17.70;;;;;;;28.30;66.42;99477.36;217367;1260;140391;-72
2023/09/13 07:54:46;;;;;;;22.60;19.10;;;;;;;28.56;65.07;99480.01;218359;1260;138764;-74
2023/09/13 07:59:48;;;;;;;26.10;19.20;;;;;;;28.70;63.92;99478.35;218746;1259;140161;-77
2023/09/13 08:04:52;;;;;;;21.60;17.10;;;;;;;28.72;63.23;99475.10;217326;1260;139941;-74
2023/09/13 08:09:56;;;;;;;24.00;18.90;;;;;;;28.73;62.35;99468.60;218516;1262;140456;-76
2023/09/13 08:14:59;;;;;;;18.00;14.50;;;;;;;28.67;61.97;99469.59;217378;1262;140070;-78
2023/09/13 08:20:07;;;;;;;16.90;15.30;;;;;;;28.80;61.65;99472.98;217752;1257;139388;-79
2023/09/13 08:25:11;;;;;;;20.30;16.90;;;;;;;28.89;61.43;99473.02;217728;1257;139344;-78
2023/09/13 08:30:14;;;;;;;19.30;17.20;;;;;;;28.92;60.14;99467.98;217638;1256;140943;-79
2023/09/13 08:35:18;;;;;;;17.50;15.90;;;;;;;28.84;59.70;99468.45;217209;1261;139610;-78
2023/09/13 08:40:24;;;;;;;18.10;15.90;;;;;;;29.06;59.98;99463.21;217161;1256;140126;-76
2023/09/13 08:45:31;;;;;;;33.10;16.10;;;;;;;29.23;59.05;99458.66;217305;1257;140360;-75
2023/09/13 08:50:36;;;;;;;23.50;14.40;;;;;;;29.39;58.60;99453.42;217341;1256;140110;-75
2023/09/13 08:55:40;;;;;;;16.30;14.70;;;;;;;29.62;58.23;99452.19;217267;1262;138897;-74
2023/09/13 09:00:48;;;;;;;14.70;13.40;;;;;;;29.77;57.30;99455.23;217293;1261;139301;-80
2023/09/13 09:05:51;;;;;;;13.70;12.40;;;;;;;29.79;56.71;99453.45;217149;1260;139940;-81
2023/09/13 09:10:59;;;;;;;21.50;14.70;;;;;;;29.74;55.92;99451.58;217992;1260;140025;-81
2023/09/13 09:16:03;;;;;;;17.90;14.40;;;;;;;29.84;56.10;99451.34;217389;1259;140042;-76
2023/09/13 09:21:08;;;;;;;13.10;11.90;;;;;;;30.12;55.86;99447.27;218313;1256;139111;-78
2023/09/13 09:26:11;;;;;;;14.30;13.10;;;;;;;30.35;55.32;99439.72;218590;1256;139787;-80
2023/09/13 09:31:13;;;;;;;16.60;13.20;;;;;;;30.62;54.89;99440.76;219703;1260;139534;-77
2023/09/13 09:36:23;;;;;;;15.50;13.40;;;;;;;30.71;53.60;99439.14;219542;1256;140172;-80
2023/09/13 09:41:32;;;;;;;17.30;15.30;;;;;;;30.59;53.11;99436.25;217260;1259;139904;-81
2023/09/13 09:46:35;;;;;;;14.80;13.40;;;;;;;30.61;52.86;99436.76;217678;1257;139643;-81
2023/09/13 09:51:39;;;;;;;15.40;13.10;;;;;;;30.60;52.71;99434.30;217441;1260;140330;-81
2023/09/13 09:56:43;;;;;;;17.30;11.30;;;;;;;30.63;52.17;99431.03;217268;1260;140359;-80
2023/09/13 10:01:56;;;;;;;17.60;14.20;;;;;;;30.86;52.56;99428.36;217844;1260;139904;-79
2023/09/13 10:07:03;;;;;;;16.80;14.80;;;;;;;30.79;51.74;99425.70;217675;1260;139878;-79
2023/09/13 10:12:09;;;;;;;15.80;14.30;;;;;;;30.89;51.75;99424.23;217978;1261;140729;-75
2023/09/13 10:17:13;;;;;;;;;;;;;;;30.86;51.82;99421.62;218250;1256;139403;-77
2023/09/13 10:22:18;;;;;;;13.20;10.90;;;;;;;30.84;51.50;99419.71;217829;1260;126663;-77
2023/09/13 10:27:27;;;;;;;11.40;10.20;;;;;;;31.10;51.02;99418.88;217598;1258;140030;-79
2023/09/13 10:32:43;;;;;;;12.20;11.00;;;;;;;30.96;50.39;99412.50;218635;1260;139298;-79
2023/09/13 10:38:01;;;;;;;20.60;12.00;;;;;;;30.88;50.31;99410.78;217390;1260;140175;-79
2023/09/13 10:43:05;;;;;;;11.10;10.00;;;;;;;31.00;50.13;99411.91;217633;1260;139523;-75
2023/09/13 10:48:10;;;;;;;12.30;11.20;;;;;;;31.08;50.04;99409.17;217279;1256;152573;-73
2023/09/13 10:53:14;;;;;;;16.60;12.00;;;;;;;31.21;49.82;99413.85;218437;1257;141285;-78
2023/09/13 10:58:20;;;;;;;12.60;11.20;;;;;;;31.19;49.11;99415.09;217951;1257;140251;-79
2023/09/13 11:03:24;;;;;;;12.90;11.30;;;;;;;31.14;49.14;99414.91;217415;1257;139424;-77
2023/09/13 11:08:30;;;;;;;12.90;10.40;;;;;;;31.21;49.12;99418.81;219106;1260;140291;-74
2023/09/13 11:13:33;;;;;;;13.30;9.60;;;;;;;31.32;48.35;99413.39;219959;1257;140699;-76
2023/09/13 11:18:46;;;;;;;11.20;10.20;;;;;;;31.26;47.45;99423.73;219549;1260;139289;-83
2023/09/13 11:23:52;;;;;;;11.50;10.40;;;;;;;31.16;47.14;99424.11;217478;1260;139876;-83
2023/09/13 11:29:23;;;;;;;9.50;8.70;;;;;;;31.01;46.78;99425.20;218527;1260;139806;-79
2023/09/13 11:34:27;;;;;;;8.70;7.90;;;;;;;31.34;46.44;99427.49;217407;1260;140257;-83
2023/09/13 11:39:30;;;;;;;11.40;8.70;;;;;;;31.74;45.72;99422.30;217435;1260;139139;-84
2023/09/13 11:44:34;;;;;;;8.50;7.70;;;;;;;31.91;45.26;99427.52;218019;1256;140450;-85
2023/09/13 11:49:40;;;;;;;11.90;8.70;;;;;;;32.07;44.99;99436.21;217509;1258;139931;-78
2023/09/13 11:54:58;;;;;;;12.30;9.60;;;;;;;32.02;44.86;99430.89;218811;1260;140334;-82
2023/09/13 12:00:14;;;;;;;22.10;9.90;;;;;;;31.76;43.96;99422.55;218287;1257;140373;-78
2023/09/13 12:05:20;;;;;;;10.80;9.80;;;;;;;31.48;44.04;99422.02;218181;1260;140373;-81
2023/09/13 12:10:43;;;;;;;12.20;10.40;;;;;;;31.12;44.50;99423.59;217603;1256;139016;-84
2023/09/13 12:16:13;;;;;;;11.70;10.50;;;;;;;30.91;44.92;99417.50;217438;1257;139923;-77
2023/09/13 12:21:18;;;;;;;10.60;9.70;;;;;;;30.80;45.42;99421.95;217908;1260;140205;-84
2023/09/13 12:26:23;;;;;;;11.80;10.60;;;;;;;30.67;45.57;99420.94;217485;1257;139692;-78
2023/09/13 12:31:27;;;;;;;11.00;10.00;;;;;;;30.69;45.39;99413.89;217250;1260;142853;-79
2023/09/13 12:36:29;;;;;;;12.20;10.90;;;;;;;30.62;45.76;99410.59;217891;1257;140029;-83
2023/09/13 12:41:32;;;;;;;12.20;11.00;;;;;;;30.48;45.50;99403.43;217481;1260;140214;-82
2023/09/13 12:46:37;;;;;;;12.60;11.40;;;;;;;30.39;45.52;99396.17;217362;1261;140147;-78
2023/09/13 12:51:41;;;;;;;25.60;10.70;;;;;;;30.51;45.81;99394.34;217374;1260;139531;-80
2023/09/13 12:56:46;;;;;;;15.10;12.70;;;;;;;30.67;46.25;99399.01;217426;1260;140192;-75
2023/09/13 13:01:55;;;;;;;12.00;10.90;;;;;;;30.76;46.22;99392.66;220230;1256;140472;-77
2023/09/13 13:07:02;;;;;;;10.70;9.70;;;;;;;30.99;45.94;99383.44;218722;1260;139963;-88
2023/09/13 13:12:15;;;;;;;12.90;10.70;;;;;;;31.11;45.81;99385.70;217783;1256;140585;-88
2023/09/13 13:17:19;;;;;;;19.90;11.30;;;;;;;30.98;46.11;99382.40;218551;1260;139905;-80
2023/09/13 13:22:31;;;;;;;11.90;10.80;;;;;;;30.77;46.51;99379.85;218364;1257;139739;-77
2023/09/13 13:27:41;;;;;;;12.10;10.70;;;;;;;30.52;46.56;99367.09;218624;1258;139907;-78
2023/09/13 13:32:44;;;;;;;15.70;10.70;;;;;;;30.33;47.94;99358.38;219479;1257;139412;-82
2023/09/13 13:37:47;;;;;;;11.70;10.20;;;;;;;30.04;48.74;99355.27;217864;1257;140321;-76
2023/09/13 13:42:50;;;;;;;11.40;10.40;;;;;;;29.74;49.39;99340.74;218491;1257;139799;-75
2023/09/13 13:47:55;;;;;;;16.30;11.00;;;;;;;29.57;50.05;99330.23;217963;1260;139827;-82
2023/09/13 13:52:59;;;;;;;25.60;12.50;;;;;;;29.44;52.06;99316.48;217513;1260;140081;-76
2023/09/13 13:58:05;;;;;;;16.80;11.20;;;;;;;29.27;52.84;99310.01;217835;1257;139244;-75
2023/09/13 14:03:08;;;;;;;16.00;12.20;;;;;;;29.23;53.39;99308.46;217532;1257;139722;-83
2023/09/13 14:08:12;;;;;;;22.70;10.80;;;;;;;29.24;54.24;99305.80;217755;1258;141064;-84
2023/09/13 14:13:18;;;;;;;11.20;10.20;;;;;;;29.26;54.10;99295.89;217512;1260;140272;-75
2023/09/13 14:18:26;;;;;;;12.50;11.40;;;;;;;29.26;53.45;99290.23;217785;1257;139634;-81
2023/09/13 14:23:31;;;;;;;12.00;11.00;;;;;;;29.25;53.39;99291.48;217700;1260;139631;-80
2023/09/13 14:28:38;;;;;;;12.80;11.20;;;;;;;29.24;54.52;99303.69;217313;1260;140046;-76
2023/09/13 14:33:50;;;;;;;16.90;11.50;;;;;;;29.22;54.56;99308.36;218018;1260;140476;-76
2023/09/13 14:45:21;;;;;;;12.90;11.10;;;;;;;28.80;55.91;99300.09;217126;1260;142145;-75
2023/09/13 14:50:28;;;;;;;66.40;14.40;;;;;;;28.48;56.49;99304.45;217292;1257;150259;-77
2023/09/13 14:55:56;;;;;;;13.80;12.20;;;;;;;28.17;56.93;99307.24;216795;1256;219919;-76
2023/09/13 15:01:04;;;;;;;13.10;11.90;;;;;;;27.88;57.51;99303.91;217469;1259;140718;-76
2023/09/13 15:06:15;;;;;;;15.30;12.70;;;;;;;27.60;58.19;99303.86;218892;1257;161351;-76
2023/09/13 15:11:24;;;;;;;14.00;12.70;;;;;;;27.36;59.00;99308.48;218805;1256;151069;-75
2023/09/13 15:16:33;;;;;;;13.30;12.30;;;;;;;27.16;59.54;99304.19;220232;1256;139057;-75
2023/09/13 15:21:36;;;;;;;15.00;12.50;;;;;;;26.88;59.93;99305.38;218993;1256;141581;-79
2023/09/13 15:26:38;;;;;;;13.00;11.90;;;;;;;26.64;60.54;99298.19;220153;1256;141228;-76
2023/09/13 15:31:41;;;;;;;17.50;11.90;;;;;;;26.44;61.00;99298.15;219473;1256;139839;-71
2023/09/13 15:37:03;;;;;;;14.00;12.70;;;;;;;26.24;61.70;99316.48;218745;1256;139911;-78
2023/09/13 15:42:06;;;;;;;15.50;14.10;;;;;;;26.06;62.15;99323.47;217282;1257;139882;-75
2023/09/13 15:47:08;;;;;;;15.10;13.60;;;;;;;25.78;62.83;99340.63;218142;1256;152539;-73
2023/09/13 15:52:12;;;;;;;13.40;12.00;;;;;;;25.42;62.84;99386.90;218739;1260;142275;-73
2023/09/13 15:57:19;;;;;;;19.30;11.20;;;;;;;25.03;62.24;99416.56;218628;1260;140892;-74
2023/09/13 16:02:22;;;;;;;12.90;8.10;;;;;;;24.77;62.21;99428.27;218866;1257;141959;-74
2023/09/13 16:07:30;;;;;;;11.60;6.00;;;;;;;24.45;62.07;99424.15;217702;1257;140356;-72
2023/09/13 16:12:33;;;;;;;13.00;8.10;;;;;;;24.04;62.63;99413.05;217333;1256;139832;-73
2023/09/13 16:17:36;;;;;;;9.50;7.40;;;;;;;23.76;63.22;99416.67;217981;1256;140920;-73
2023/09/13 16:22:38;;;;;;;9.40;7.20;;;;;;;23.46;64.07;99421.30;217597;1257;139782;-73
2023/09/13 16:27:41;;;;;;;8.70;7.90;;;;;;;23.31;65.03;99424.55;217403;1260;140322;-71
2023/09/13 16:32:46;;;;;;;8.20;6.60;;;;;;;23.20;65.69;99434.33;217735;1256;140356;-71
2023/09/13 16:37:49;;;;;;;9.90;7.90;;;;;;;23.03;66.12;99443.04;218514;1256;140642;-70
2023/09/13 16:42:52;;;;;;;10.40;7.50;;;;;;;22.78;66.58;99447.09;218536;1256;140545;-74
2023/09/13 16:47:55;;;;;;;15.30;8.60;;;;;;;22.57;66.93;99454.61;217344;1257;139740;-84
2023/09/13 16:52:58;;;;;;;7.70;6.90;;;;;;;22.46;67.37;99458.92;217068;1256;141404;-80
2023/09/13 16:58:01;;;;;;;11.60;7.10;;;;;;;22.25;67.42;99485.04;217390;1256;140308;-79
2023/09/13 17:03:05;;;;;;;9.90;6.90;;;;;;;22.03;67.64;99507.80;218194;1260;141993;-74
2023/09/13 17:08:08;;;;;;;8.20;6.30;;;;;;;21.87;67.93;99525.05;218088;1256;141148;-74
2023/09/13 17:13:22;;;;;;;20.60;7.40;;;;;;;21.77;68.14;99540.03;219563;1256;139720;-77
2023/09/13 17:18:25;;;;;;;35.40;9.00;;;;;;;21.72;68.22;99516.79;218048;1257;140783;-82
2023/09/13 17:23:29;;;;;;;9.60;7.80;;;;;;;21.66;68.79;99519.84;219625;1256;140567;-76
2023/09/13 17:28:34;;;;;;;13.90;7.30;;;;;;;21.52;68.69;99508.53;218219;1260;140306;-86
2023/09/13 17:33:39;;;;;;;;;;;;;;;21.38;68.89;99534.70;217679;1257;139878;-80
2023/09/13 17:38:42;;;;;;;7.20;6.50;;;;;;;21.19;69.22;99551.90;217849;1258;126727;-83
2023/09/13 17:43:45;;;;;;;10.70;6.40;;;;;;;21.06;69.68;99539.70;217389;1257;139920;-84
2023/09/13 17:48:48;;;;;;;7.80;7.10;;;;;;;20.92;70.07;99538.96;218774;1256;139808;-81
2023/09/13 17:53:52;;;;;;;11.00;8.50;;;;;;;20.81;70.60;99548.56;218826;1257;140518;-82
2023/09/13 17:58:55;;;;;;;13.10;8.70;;;;;;;20.73;71.05;99546.19;218123;1256;140525;-82
2023/09/13 18:03:58;;;;;;;13.40;8.70;;;;;;;20.62;71.52;99563.38;217680;1260;140587;-83
2023/09/13 18:09:01;;;;;;;16.50;10.10;;;;;;;20.47;72.08;99569.49;217323;1256;140152;-77
2023/09/13 18:14:05;;;;;;;10.90;9.10;;;;;;;20.35;72.80;99541.52;217955;1257;139918;-86
2023/09/13 18:19:07;;;;;;;14.30;10.60;;;;;;;20.25;73.33;99528.79;217584;1258;140098;-81
2023/09/13 18:24:12;;;;;;;14.10;8.80;;;;;;;20.16;73.95;99560.58;217518;1257;140414;-85
2023/09/13 18:29:21;;;;;;;12.40;8.90;;;;;;;20.10;74.42;99571.02;217550;1256;142424;-78
2023/09/13 18:34:25;;;;;;;11.00;8.70;;;;;;;20.04;74.88;99592.88;217421;1257;141427;-84
2023/09/13 18:39:28;;;;;;;12.50;8.10;;;;;;;19.94;75.41;99598.09;218621;1257;141441;-78
2023/09/13 18:44:30;;;;;;;13.90;8.90;;;;;;;19.89;75.79;99598.73;217284;1257;141839;-74
2023/09/13 18:49:33;;;;;;;13.00;10.20;;;;;;;19.91;76.39;99587.55;217488;1256;140445;-74
2023/09/13 18:54:37;;;;;;;10.50;9.40;;;;;;;19.91;76.46;99575.11;217415;1258;140498;-83
2023/09/13 18:59:42;;;;;;;11.30;10.00;;;;;;;19.86;76.70;99571.10;218523;1256;140390;-85
2023/09/13 19:04:52;;;;;;;13.20;9.00;;;;;;;19.84;76.97;99570.11;217713;1260;139983;-79
2023/09/13 19:10:00;;;;;;;12.30;9.60;;;;;;;19.80;77.17;99567.80;218468;1256;140287;-69
2023/09/13 19:15:05;;;;;;;11.70;9.90;;;;;;;19.71;77.28;99565.80;219795;1256;139303;-75
2023/09/13 19:20:09;;;;;;;11.60;9.80;;;;;;;19.63;77.65;99565.41;217698;1257;141334;-73
2023/09/13 19:25:14;;;;;;;11.70;10.10;;;;;;;19.57;78.06;99566.13;218016;1256;141724;-78
2023/09/13 19:30:20;;;;;;;12.20;9.80;;;;;;;19.50;78.34;99573.27;218104;1256;141382;-76
2023/09/13 19:35:26;;;;;;;9.50;8.60;;;;;;;19.41;78.61;99573.52;217389;1260;273743;-80
2023/09/13 19:40:28;;;;;;;9.50;8.60;;;;;;;19.26;79.16;99580.52;217476;1257;140171;-77
2023/09/13 19:45:34;;;;;;;14.10;10.00;;;;;;;19.20;79.73;99576.24;217757;1256;142589;-80
2023/09/13 19:50:38;;;;;;;13.60;10.60;;;;;;;19.22;80.17;99575.56;218668;1256;141244;-71
2023/09/13 19:55:42;;;;;;;12.10;10.70;;;;;;;19.25;80.27;99579.20;219464;1256;141547;-72
2023/09/13 20:00:47;;;;;;;12.80;10.50;;;;;;;19.17;80.64;99591.70;218012;1257;140019;-73
2023/09/13 20:05:49;;;;;;;21.30;10.60;;;;;;;19.09;80.90;99594.30;218017;1259;139520;-73
2023/09/13 20:10:54;;;;;;;16.20;11.60;;;;;;;19.06;81.38;99596.94;217590;1258;141362;-71
2023/09/13 20:15:56;;;;;;;11.70;10.60;;;;;;;19.12;81.66;99601.55;217857;1260;140282;-75
2023/09/13 20:21:01;;;;;;;12.80;11.30;;;;;;;19.19;81.91;99604.10;217716;1262;140249;-72
2023/09/13 20:26:03;;;;;;;13.60;11.10;;;;;;;19.21;81.91;99607.52;217431;1262;140610;-74
2023/09/13 20:31:07;;;;;;;12.40;10.70;;;;;;;19.20;81.96;99603.27;217397;1259;139932;-75
2023/09/13 20:36:21;;;;;;;11.30;10.10;;;;;;;19.17;81.91;99597.96;218711;1257;141270;-76
2023/09/13 20:41:25;;;;;;;13.20;11.50;;;;;;;19.15;82.01;99600.09;217429;1257;140115;-72
2023/09/13 20:46:33;;;;;;;12.60;11.40;;;;;;;19.16;82.16;99606.04;217434;1259;142047;-74
2023/09/13 20:51:37;;;;;;;39.70;11.40;;;;;;;19.15;82.16;99611.55;217913;1257;143014;-74
2023/09/13 20:56:39;;;;;;;11.70;9.60;;;;;;;19.11;82.31;99608.20;218342;1257;140510;-72
2023/09/13 21:01:42;;;;;;;9.70;8.80;;;;;;;19.09;82.50;99604.83;218202;1258;210219;-71
2023/09/13 21:06:46;;;;;;;14.90;10.20;;;;;;;19.04;82.42;99606.14;217305;1256;140531;-69
2023/09/13 21:11:49;;;;;;;11.90;10.60;;;;;;;18.98;82.38;99604.40;218795;1259;140756;-72
2023/09/13 21:16:51;;;;;;;10.80;9.40;;;;;;;18.92;82.60;99603.80;217577;1259;140753;-71
2023/09/13 21:21:56;;;;;;;11.20;10.10;;;;;;;18.88;82.64;99612.40;218029;1259;141295;-70
2023/09/13 21:26:59;;;;;;;11.70;8.80;;;;;;;18.84;82.79;99619.69;217996;1257;140135;-72
2023/09/13 21:32:03;;;;;;;11.20;9.70;;;;;;;18.83;82.85;99620.30;218100;1258;141174;-72
2023/09/13 21:37:07;;;;;;;13.40;11.40;;;;;;;18.81;83.08;99620.16;218474;1260;139823;-72
2023/09/13 21:42:12;;;;;;;11.40;10.20;;;;;;;18.81;83.22;99615.36;218355;1259;140819;-73
2023/09/13 21:47:15;;;;;;;11.60;10.20;;;;;;;18.81;83.38;99615.46;218391;1257;141244;-72
2023/09/13 21:52:20;;;;;;;14.60;10.00;;;;;;;18.82;83.56;99610.11;217620;1261;140141;-69
2023/09/13 21:57:27;;;;;;;13.00;11.70;;;;;;;18.77;83.35;99612.71;217501;1260;248527;-72
2023/09/13 22:02:32;;;;;;;13.50;9.60;;;;;;;18.70;83.50;99629.75;217635;1260;142431;-72
2023/09/13 22:07:35;;;;;;;14.60;10.50;;;;;;;18.64;83.71;99642.98;218449;1257;140607;-82
2023/09/13 22:12:38;;;;;;;9.70;8.80;;;;;;;18.61;83.90;99642.31;217615;1259;140094;-74
2023/09/13 22:17:42;;;;;;;10.20;9.20;;;;;;;18.59;83.87;99642.48;217908;1261;140176;-71
2023/09/13 22:22:45;;;;;;;10.90;8.50;;;;;;;18.56;83.95;99645.15;217643;1257;139898;-79
2023/09/13 22:27:48;;;;;;;9.90;8.80;;;;;;;18.53;83.95;99650.70;217558;1257;140132;-85
2023/09/13 22:32:52;;;;;;;10.80;9.20;;;;;;;18.51;83.93;99656.98;217280;1258;140678;-71
2023/09/13 22:37:55;;;;;;;9.30;8.40;;;;;;;18.46;83.94;99663.56;217276;1258;140145;-71
2023/09/13 22:43:00;;;;;;;9.40;8.50;;;;;;;18.42;84.06;99661.77;217737;1259;140520;-70
2023/09/13 22:48:05;;;;;;;8.70;7.90;;;;;;;18.38;84.13;99658.59;218183;1258;140113;-72
2023/09/13 22:53:09;;;;;;;8.80;7.40;;;;;;;18.34;84.11;99654.16;218602;1258;139869;-73
2023/09/13 22:58:12;;;;;;;8.30;7.60;;;;;;;18.29;84.22;99647.64;219023;1259;139839;-72
2023/09/13 23:03:16;;;;;;;7.60;6.30;;;;;;;18.25;84.14;99649.84;218631;1259;140743;-71